createdAt,value
2018-07-29T04:36:35.415Z,1001.08
2018-07-29T04:37:35.362Z,1001.08
2018-07-29T04:39:28.400Z,1001.08
2018-07-29T04:40:28.347Z,1001.05
2018-07-29T04:42:21.253Z,1001.06
2018-07-29T04:43:21.201Z,1001.10
2018-07-29T04:45:14.089Z,1001.13
2018-07-29T04:46:14.049Z,1001.12
2018-07-29T04:48:06.993Z,1001.10
2018-07-29T04:49:06.981Z,1001.12
2018-07-29T04:50:59.784Z,1001.12
2018-07-29T04:51:59.746Z,1001.16
2018-07-29T04:53:52.652Z,1001.12
2018-07-29T04:54:52.606Z,1001.12
2018-07-29T04:56:45.505Z,1001.07
2018-07-29T04:57:45.459Z,1001.10
2018-07-29T04:59:38.328Z,1001.03
2018-07-29T05:00:38.314Z,1001.07
2018-07-29T05:02:31.209Z,1001.00
2018-07-29T05:03:31.151Z,1000.97
2018-07-29T05:05:24.037Z,1000.95
2018-07-29T05:06:24.068Z,1000.91
2018-07-29T05:08:17.188Z,1000.79
2018-07-29T05:09:17.093Z,1000.76
2018-07-29T05:11:09.864Z,1000.70
2018-07-29T05:12:09.801Z,1000.64
2018-07-29T05:14:02.784Z,1000.60
2018-07-29T05:15:02.760Z,1000.53
2018-07-29T05:16:55.762Z,1000.37
2018-07-29T05:17:55.713Z,1000.29
2018-07-29T05:18:55.683Z,1000.24
2018-07-29T05:19:55.660Z,1000.23
2018-07-29T05:20:55.639Z,1000.22
2018-07-29T05:21:55.608Z,1000.26
2018-07-29T05:22:55.589Z,1000.26
2018-07-29T05:23:55.570Z,1000.29
2018-07-29T05:24:55.581Z,1000.23
2018-07-29T05:25:55.559Z,1000.20
2018-07-29T05:26:55.493Z,1000.19
2018-07-29T05:27:55.496Z,1000.11
2018-07-29T05:28:55.464Z,1000.10
2018-07-29T05:29:55.423Z,1000.10
2018-07-29T05:30:55.393Z,1000.08
2018-07-29T05:31:55.374Z,1000.14
2018-07-29T05:32:55.348Z,1000.18
2018-07-29T05:33:55.321Z,1000.30
2018-07-29T05:34:55.312Z,1000.36
2018-07-29T05:35:55.272Z,1000.48
2018-07-29T05:36:55.252Z,1000.51
2018-07-29T05:37:55.231Z,1000.54
2018-07-29T05:38:55.201Z,1000.58
2018-07-29T05:39:55.185Z,1000.57
2018-07-29T05:40:55.154Z,1000.58
2018-07-29T05:41:55.131Z,1000.62
2018-07-29T05:42:55.102Z,1000.68
2018-07-29T05:43:55.081Z,1000.70
2018-07-29T05:44:55.059Z,1000.68
2018-07-29T05:45:55.043Z,1000.65
2018-07-29T05:46:55.009Z,1000.68
2018-07-29T05:47:54.988Z,1000.65
2018-07-29T05:48:54.965Z,1000.68
2018-07-29T05:49:54.940Z,1000.67
2018-07-29T05:50:54.916Z,1000.69
2018-07-29T05:51:54.893Z,1000.69
2018-07-29T05:52:54.866Z,1000.71
2018-07-29T05:53:54.845Z,1000.76
2018-07-29T05:54:54.818Z,1000.73
2018-07-29T05:55:54.853Z,1000.71
2018-07-29T05:56:54.775Z,1000.78
2018-07-29T05:57:54.745Z,1000.83
2018-07-29T05:58:54.727Z,1000.86
2018-07-29T05:59:54.707Z,1000.82
2018-07-29T06:00:54.680Z,1000.82
2018-07-29T06:01:54.651Z,1000.83
2018-07-29T06:02:54.623Z,1000.81
2018-07-29T06:03:54.600Z,1000.84
2018-07-29T06:04:54.585Z,1000.86
2018-07-29T06:05:54.551Z,1000.86
2018-07-29T06:06:54.538Z,1000.84
2018-07-29T06:07:54.513Z,1000.83
2018-07-29T06:08:54.493Z,1000.82
2018-07-29T06:09:54.468Z,1000.79
2018-07-29T06:10:54.433Z,1000.80
2018-07-29T06:11:54.415Z,1000.84
2018-07-29T06:12:54.390Z,1000.85
2018-07-29T06:13:54.364Z,1000.87
2018-07-29T06:14:54.339Z,1000.87
2018-07-29T06:15:54.320Z,1000.89
2018-07-29T06:16:54.302Z,1000.84
2018-07-29T06:17:54.282Z,1000.85
2018-07-29T06:18:54.245Z,1000.87
2018-07-29T06:19:54.220Z,1000.84
2018-07-29T06:20:54.200Z,1000.85
2018-07-29T06:21:54.178Z,1000.84
2018-07-29T06:22:54.149Z,1000.80
2018-07-29T06:23:54.129Z,1000.89
2018-07-29T06:24:54.168Z,1000.86
2018-07-29T06:25:54.087Z,1000.85
2018-07-29T06:26:54.072Z,1000.84
2018-07-29T06:27:54.033Z,1000.83
2018-07-29T06:28:54.008Z,1000.84
2018-07-29T06:29:54.007Z,1000.81
2018-07-29T06:30:53.967Z,1000.83
2018-07-29T06:31:53.935Z,1000.84
2018-07-29T06:32:53.911Z,1000.82
2018-07-29T06:33:54.092Z,1000.80
2018-07-29T06:34:53.904Z,1000.81
2018-07-29T06:35:53.844Z,1000.77
2018-07-29T06:36:53.834Z,1000.78
2018-07-29T06:37:53.793Z,1000.78
2018-07-29T06:38:53.790Z,1000.76
2018-07-29T06:39:53.753Z,1000.77
2018-07-29T06:40:53.728Z,1000.75
2018-07-29T06:41:53.694Z,1000.78
2018-07-29T06:42:53.674Z,1000.74
2018-07-29T06:43:53.655Z,1000.80
2018-07-29T06:44:53.621Z,1000.74
2018-07-29T06:45:53.609Z,1000.75
2018-07-29T06:46:53.576Z,1000.78
2018-07-29T06:47:53.553Z,1000.71
2018-07-29T06:48:53.533Z,1000.71
2018-07-29T06:49:53.505Z,1000.73
2018-07-29T06:50:53.595Z,1000.68
2018-07-29T06:51:53.462Z,1000.72
2018-07-29T06:52:53.475Z,1000.67
2018-07-29T06:53:53.412Z,1000.72
2018-07-29T06:54:53.386Z,1000.69
2018-07-29T06:55:53.358Z,1000.73
2018-07-29T06:56:53.342Z,1000.75
2018-07-29T06:57:53.318Z,1000.76
2018-07-29T06:58:53.292Z,1000.75
2018-07-29T06:59:53.336Z,1000.75
2018-07-29T07:00:53.245Z,1000.69
2018-07-29T07:01:53.219Z,1000.68
2018-07-29T07:02:53.204Z,1000.68
2018-07-29T07:03:53.174Z,1000.68
2018-07-29T07:04:53.149Z,1000.66
2018-07-29T07:05:53.121Z,1000.62
2018-07-29T07:06:53.096Z,1000.65
2018-07-29T07:07:53.079Z,1000.66
2018-07-29T07:08:53.053Z,1000.69
2018-07-29T07:09:53.035Z,1000.64
2018-07-29T07:10:53.003Z,1000.66
2018-07-29T07:11:52.980Z,1000.65
2018-07-29T07:12:52.959Z,1000.66
2018-07-29T07:13:52.933Z,1000.68
2018-07-29T07:14:52.935Z,1000.73
2018-07-29T07:15:52.924Z,1000.66
2018-07-29T07:16:52.865Z,1000.64
2018-07-29T07:17:52.905Z,1000.65
2018-07-29T07:18:52.812Z,1000.65
2018-07-29T07:19:52.795Z,1000.63
2018-07-29T07:20:52.772Z,1000.68
2018-07-29T07:21:52.747Z,1000.63
2018-07-29T07:22:52.719Z,1000.62
2018-07-29T07:23:52.694Z,1000.56
2018-07-29T07:24:52.674Z,1000.59
2018-07-29T07:25:52.646Z,1000.56
2018-07-29T07:26:52.626Z,1000.60
2018-07-29T07:27:52.605Z,1000.58
2018-07-29T07:28:52.577Z,1000.59
2018-07-29T07:29:52.555Z,1000.61
2018-07-29T07:30:52.528Z,1000.60
2018-07-29T07:31:52.507Z,1000.56
2018-07-29T07:32:52.515Z,1000.66
2018-07-29T07:33:52.459Z,1000.65
2018-07-29T07:34:52.442Z,1000.66
2018-07-29T07:35:52.412Z,1000.66
2018-07-29T07:36:52.386Z,1000.67
2018-07-29T07:37:52.363Z,1000.72
2018-07-29T07:38:52.343Z,1000.70
2018-07-29T07:39:52.322Z,1000.62
2018-07-29T07:40:52.298Z,1000.60
2018-07-29T07:41:52.269Z,1000.60
2018-07-29T07:42:52.252Z,1000.66
2018-07-29T07:43:52.223Z,1000.68
2018-07-29T07:44:52.344Z,1000.73
2018-07-29T07:45:52.188Z,1000.73
2018-07-29T07:46:52.150Z,1000.72
2018-07-29T07:47:52.133Z,1000.80
2018-07-29T07:48:52.110Z,1000.80
2018-07-29T07:49:52.092Z,1000.80
2018-07-29T07:50:52.060Z,1000.92
2018-07-29T07:51:52.043Z,1000.91
2018-07-29T07:52:52.015Z,1000.83
2018-07-29T07:53:51.985Z,1000.86
2018-07-29T07:54:51.971Z,1000.80
2018-07-29T07:55:51.989Z,1000.81
2018-07-29T07:56:51.925Z,1000.80
2018-07-29T07:57:51.900Z,1000.80
2018-07-29T07:58:51.869Z,1000.82
2018-07-29T07:59:51.850Z,1000.88
2018-07-29T08:00:51.834Z,1000.82
2018-07-29T08:01:51.807Z,1000.72
2018-07-29T08:02:51.784Z,1000.72
2018-07-29T08:03:51.758Z,1000.75
2018-07-29T08:04:51.733Z,1000.74
2018-07-29T08:05:51.727Z,1000.72
2018-07-29T08:06:51.692Z,1000.79
2018-07-29T08:07:51.668Z,1000.78
2018-07-29T08:08:51.642Z,1000.82
2018-07-29T08:09:51.620Z,1000.82
2018-07-29T08:10:51.590Z,1000.82
2018-07-29T08:11:51.574Z,1000.79
2018-07-29T08:12:51.556Z,1000.79
2018-07-29T08:13:51.533Z,1000.81
2018-07-29T08:14:51.502Z,1000.80
2018-07-29T08:15:51.482Z,1000.79
2018-07-29T08:16:51.456Z,1000.78
2018-07-29T08:17:51.440Z,1000.81
2018-07-29T08:18:51.410Z,1000.76
2018-07-29T08:19:51.383Z,1000.88
2018-07-29T08:20:51.369Z,1000.83
2018-07-29T08:21:51.343Z,1000.81
2018-07-29T08:22:51.319Z,1000.83
2018-07-29T08:23:51.303Z,1000.81
2018-07-29T08:24:51.278Z,1000.78
2018-07-29T08:25:51.242Z,1000.80
2018-07-29T08:26:51.227Z,1000.74
2018-07-29T08:27:51.205Z,1000.69
2018-07-29T08:28:51.180Z,1000.70
2018-07-29T08:29:51.161Z,1000.66
2018-07-29T08:30:51.134Z,1000.68
2018-07-29T08:31:51.099Z,1000.64
2018-07-29T08:32:51.088Z,1000.66
2018-07-29T08:33:51.071Z,1000.68
2018-07-29T08:34:51.034Z,1000.58
2018-07-29T08:35:51.019Z,1000.65
2018-07-29T08:36:51.036Z,1000.67
2018-07-29T08:37:50.972Z,1000.67
2018-07-29T08:38:50.981Z,1000.58
2018-07-29T08:39:50.919Z,1000.53
2018-07-29T08:40:50.898Z,1000.51
2018-07-29T08:41:50.871Z,1000.57
2018-07-29T08:42:50.854Z,1000.58
2018-07-29T08:43:50.822Z,1000.58
2018-07-29T08:44:50.806Z,1000.55
2018-07-29T08:45:50.785Z,1000.58
2018-07-29T08:46:50.758Z,1000.61
2018-07-29T08:47:50.741Z,1000.53
2018-07-29T08:48:50.732Z,1000.60
2018-07-29T08:49:50.741Z,1000.58
2018-07-29T08:50:50.665Z,1000.59
2018-07-29T08:51:50.640Z,1000.66
2018-07-29T08:52:50.635Z,1000.65
2018-07-29T08:53:50.597Z,1000.60
2018-07-29T08:54:50.569Z,1000.63
2018-07-29T08:55:50.551Z,1000.66
2018-07-29T08:56:50.523Z,1000.70
2018-07-29T08:57:50.499Z,1000.71
2018-07-29T08:58:50.483Z,1000.64
2018-07-29T08:59:50.467Z,1000.61
2018-07-29T09:00:50.431Z,1000.63
2018-07-29T09:01:50.408Z,1000.60
2018-07-29T09:02:50.392Z,1000.66
2018-07-29T09:03:50.401Z,1000.69
2018-07-29T09:04:50.351Z,1000.62
2018-07-29T09:05:50.320Z,1000.59
2018-07-29T09:06:50.293Z,1000.63
2018-07-29T09:07:50.275Z,1000.51
2018-07-29T09:08:50.248Z,1000.49
2018-07-29T09:09:50.223Z,1000.62
2018-07-29T09:10:50.209Z,1000.60
2018-07-29T09:11:50.180Z,1000.61
2018-07-29T09:12:50.178Z,1000.60
2018-07-29T09:13:50.140Z,1000.62
2018-07-29T09:14:50.115Z,1000.57
2018-07-29T09:15:50.099Z,1000.60
2018-07-29T09:16:50.066Z,1000.55
2018-07-29T09:17:50.044Z,1000.50
2018-07-29T09:18:50.027Z,1000.60
2018-07-29T09:19:50.016Z,1000.57
2018-07-29T09:20:49.971Z,1000.56
2018-07-29T09:21:49.958Z,1000.52
2018-07-29T09:22:49.925Z,1000.61
2018-07-29T09:23:49.937Z,1000.57
2018-07-29T09:24:49.919Z,1000.54
2018-07-29T09:25:49.867Z,1000.62
2018-07-29T09:26:49.839Z,1000.59
2018-07-29T09:27:49.817Z,1000.63
2018-07-29T09:28:49.797Z,1000.69
2018-07-29T09:29:49.774Z,1000.65
2018-07-29T09:30:49.883Z,1000.70
2018-07-29T09:31:49.742Z,1000.69
2018-07-29T09:32:49.739Z,1000.67
2018-07-29T09:33:49.678Z,1000.71
2018-07-29T09:34:49.658Z,1000.63
2018-07-29T09:35:49.631Z,1000.67
2018-07-29T09:36:49.757Z,1000.60
2018-07-29T09:37:49.593Z,1000.64
2018-07-29T09:38:49.564Z,1000.62
2018-07-29T09:39:49.582Z,1000.61
2018-07-29T09:40:49.520Z,1000.55
2018-07-29T09:41:49.499Z,1000.60
2018-07-29T09:42:49.482Z,1000.68
2018-07-29T09:43:49.451Z,1000.63
2018-07-29T09:44:49.443Z,1000.59
2018-07-29T09:45:49.417Z,1000.62
2018-07-29T09:46:50.235Z,1000.62
2018-07-29T09:47:49.360Z,1000.67
2018-07-29T09:48:49.345Z,1000.67
2018-07-29T09:49:49.322Z,1000.68
2018-07-29T09:50:49.296Z,1000.59
2018-07-29T09:51:49.271Z,1000.63
2018-07-29T09:52:49.256Z,1000.59
2018-07-29T09:53:49.238Z,1000.54
2018-07-29T09:54:49.265Z,1000.52
2018-07-29T09:55:49.187Z,1000.53
2018-07-29T09:56:49.159Z,1000.52
2018-07-29T09:57:49.139Z,1000.58
2018-07-29T09:58:49.111Z,1000.56
2018-07-29T09:59:49.092Z,1000.55
2018-07-29T10:00:49.075Z,1000.58
2018-07-29T10:01:49.047Z,1000.57
2018-07-29T10:02:49.023Z,1000.53
2018-07-29T10:03:49.002Z,1000.49
2018-07-29T10:04:48.984Z,1000.49
2018-07-29T10:05:48.949Z,1000.48
2018-07-29T10:06:48.950Z,1000.50
2018-07-29T10:07:48.918Z,1000.50
2018-07-29T10:08:48.888Z,1000.54
2018-07-29T10:09:48.868Z,1000.56
2018-07-29T10:10:48.839Z,1000.49
2018-07-29T10:11:48.820Z,1000.45
2018-07-29T10:12:48.806Z,1000.57
2018-07-29T10:13:48.774Z,1000.54
2018-07-29T10:14:48.756Z,1000.58
2018-07-29T10:15:48.733Z,1000.57
2018-07-29T10:16:48.732Z,1000.53
2018-07-29T10:17:48.685Z,1000.59
2018-07-29T10:18:48.662Z,1000.59
2018-07-29T10:19:48.644Z,1000.59
2018-07-29T10:20:50.075Z,1000.57
2018-07-29T10:21:48.594Z,1000.49
2018-07-29T10:22:48.573Z,1000.49
2018-07-29T10:23:48.561Z,1000.44
2018-07-29T10:24:48.531Z,1000.41
2018-07-29T10:25:48.510Z,1000.50
2018-07-29T10:26:48.483Z,1000.45
2018-07-29T10:27:48.459Z,1000.45
2018-07-29T10:28:48.446Z,1000.39
2018-07-29T10:29:48.418Z,1000.39
2018-07-29T10:30:48.402Z,1000.48
2018-07-29T10:31:48.381Z,1000.46
2018-07-29T10:32:48.351Z,1000.52
2018-07-29T10:33:48.329Z,1000.45
2018-07-29T10:34:48.313Z,1000.47
2018-07-29T10:35:48.287Z,1000.46
2018-07-29T10:36:48.264Z,1000.46
2018-07-29T10:37:48.237Z,1000.55
2018-07-29T10:38:48.227Z,1000.48
2018-07-29T10:39:48.199Z,1000.36
2018-07-29T10:40:48.177Z,1000.45
2018-07-29T10:41:48.153Z,1000.48
2018-07-29T10:42:48.131Z,1000.43
2018-07-29T10:43:48.114Z,1000.46
2018-07-29T10:44:48.085Z,1000.47
2018-07-29T10:45:48.080Z,1000.43
2018-07-29T10:46:48.107Z,1000.43
2018-07-29T10:47:48.020Z,1000.48
2018-07-29T10:48:48.003Z,1000.46
2018-07-29T10:49:48.002Z,1000.46
2018-07-29T10:50:47.959Z,1000.46
2018-07-29T10:51:47.932Z,1000.50
2018-07-29T10:52:47.910Z,1000.40
2018-07-29T10:53:47.895Z,1000.39
2018-07-29T10:54:47.865Z,1000.38
2018-07-29T10:55:47.850Z,1000.36
2018-07-29T10:56:47.829Z,1000.34
2018-07-29T10:57:47.805Z,1000.35
2018-07-29T10:58:47.786Z,1000.45
2018-07-29T10:59:47.762Z,1000.39
2018-07-29T11:00:47.741Z,1000.41
2018-07-29T11:01:47.720Z,1000.41
2018-07-29T11:02:47.699Z,1000.36
2018-07-29T11:03:47.677Z,1000.37
2018-07-29T11:04:47.647Z,1000.41
2018-07-29T11:05:47.630Z,1000.39
2018-07-29T11:06:47.606Z,1000.36
2018-07-29T11:07:47.586Z,1000.32
2018-07-29T11:08:47.571Z,1000.34
2018-07-29T11:09:47.602Z,1000.37
2018-07-29T11:10:47.522Z,1000.37
2018-07-29T11:11:47.503Z,1000.38
2018-07-29T11:12:47.471Z,1000.39
2018-07-29T11:13:47.533Z,1000.40
2018-07-29T11:14:47.426Z,1000.39
2018-07-29T11:15:47.411Z,1000.39
2018-07-29T11:16:47.394Z,1000.44
2018-07-29T11:17:47.370Z,1000.40
2018-07-29T11:18:47.341Z,1000.35
2018-07-29T11:19:47.325Z,1000.28
2018-07-29T11:20:47.302Z,1000.28
2018-07-29T11:21:47.274Z,1000.21
2018-07-29T11:22:47.264Z,1000.24
2018-07-29T11:23:47.285Z,1000.22
2018-07-29T11:24:47.211Z,1000.28
2018-07-29T11:25:47.198Z,1000.38
2018-07-29T11:26:47.170Z,1000.37
2018-07-29T11:27:47.148Z,1000.35
2018-07-29T11:28:47.127Z,1000.42
2018-07-29T11:29:47.108Z,1000.42
2018-07-29T11:30:47.086Z,1000.36
2018-07-29T11:31:47.065Z,1000.38
2018-07-29T11:32:47.046Z,1000.35
2018-07-29T11:33:47.018Z,1000.28
2018-07-29T11:34:47.003Z,1000.33
2018-07-29T11:35:46.980Z,1000.40
2018-07-29T11:36:46.959Z,1000.31
2018-07-29T11:37:46.941Z,1000.30
2018-07-29T11:38:46.910Z,1000.33
2018-07-29T11:39:46.890Z,1000.37
2018-07-29T11:40:46.870Z,1000.38
2018-07-29T11:41:46.871Z,1000.39
2018-07-29T11:42:46.831Z,1000.38
2018-07-29T11:43:46.811Z,1000.31
2018-07-29T11:44:46.788Z,1000.33
2018-07-29T11:45:46.762Z,1000.29
2018-07-29T11:46:46.743Z,1000.35
2018-07-29T11:47:46.721Z,1000.25
2018-07-29T11:48:46.703Z,1000.26
2018-07-29T11:49:46.680Z,1000.33
2018-07-29T11:50:46.660Z,1000.36
2018-07-29T11:51:46.670Z,1000.35
2018-07-29T11:52:46.616Z,1000.40
2018-07-29T11:53:46.593Z,1000.31
2018-07-29T11:54:46.575Z,1000.48
2018-07-29T11:55:46.547Z,1000.41
2018-07-29T11:56:46.525Z,1000.34
2018-07-29T11:57:46.524Z,1000.35
2018-07-29T11:58:46.489Z,1000.36
2018-07-29T11:59:46.529Z,1000.42
2018-07-29T12:00:46.442Z,1000.45
2018-07-29T12:01:46.420Z,1000.42
2018-07-29T12:02:46.399Z,1000.39
2018-07-29T12:03:46.379Z,1000.42
2018-07-29T12:04:46.419Z,1000.39
2018-07-29T12:05:46.364Z,1000.46
2018-07-29T12:06:46.332Z,1000.43
2018-07-29T12:07:46.305Z,1000.44
2018-07-29T12:08:46.272Z,1000.33
2018-07-29T12:09:46.252Z,1000.35
2018-07-29T12:10:46.222Z,1000.34
2018-07-29T12:11:46.208Z,1000.33
2018-07-29T12:12:46.205Z,1000.34
2018-07-29T12:13:46.160Z,1000.31
2018-07-29T12:14:46.818Z,1000.24
2018-07-29T12:15:46.116Z,1000.21
2018-07-29T12:16:46.118Z,1000.23
2018-07-29T12:17:46.073Z,1000.25
2018-07-29T12:18:46.057Z,1000.26
2018-07-29T12:19:46.030Z,1000.16
2018-07-29T12:20:46.013Z,1000.27
2018-07-29T12:21:45.989Z,1000.32
2018-07-29T12:22:45.988Z,1000.09
2018-07-29T12:23:45.949Z,1000.31
2018-07-29T12:24:45.927Z,1000.33
2018-07-29T12:25:45.908Z,1000.30
2018-07-29T12:26:45.882Z,1000.27
2018-07-29T12:27:45.891Z,1000.26
2018-07-29T12:28:45.842Z,1000.28
2018-07-29T12:29:45.826Z,1000.37
2018-07-29T12:30:45.794Z,1000.33
2018-07-29T12:31:45.776Z,1000.29
2018-07-29T12:32:45.755Z,1000.33
2018-07-29T12:33:45.731Z,1000.30
2018-07-29T12:34:45.715Z,1000.26
2018-07-29T12:35:45.689Z,1000.29
2018-07-29T12:36:45.718Z,1000.30
2018-07-29T12:37:45.655Z,1000.36
2018-07-29T12:38:45.634Z,1000.28
2018-07-29T12:39:45.610Z,1000.23
2018-07-29T12:40:45.579Z,1000.31
2018-07-29T12:41:45.560Z,1000.26
2018-07-29T12:42:45.540Z,1000.27
2018-07-29T12:43:45.518Z,1000.26
2018-07-29T12:44:45.494Z,1000.29
2018-07-29T12:45:45.468Z,1000.21
2018-07-29T12:46:45.453Z,1000.19
2018-07-29T12:47:45.472Z,1000.15
2018-07-29T12:48:45.411Z,1000.19
2018-07-29T12:49:45.391Z,1000.22
2018-07-29T12:50:45.359Z,1000.18
2018-07-29T12:51:45.347Z,1000.13
2018-07-29T12:52:45.320Z,1000.17
2018-07-29T12:53:45.296Z,1000.14
2018-07-29T12:54:45.277Z,1000.13
2018-07-29T12:55:45.253Z,1000.10
2018-07-29T12:56:45.237Z,1000.08
2018-07-29T12:57:45.215Z,1000.13
2018-07-29T12:58:45.185Z,1000.07
2018-07-29T12:59:45.167Z,1000.13
2018-07-29T13:00:45.146Z,999.93
2018-07-29T13:01:45.123Z,999.98
2018-07-29T13:02:45.103Z,1000.02
2018-07-29T13:03:45.079Z,1000.03
2018-07-29T13:04:45.067Z,1000.04
2018-07-29T13:05:45.109Z,1000.01
2018-07-29T13:06:45.017Z,1000.10
2018-07-29T13:07:44.986Z,1000.07
2018-07-29T13:08:44.975Z,1000.00
2018-07-29T13:09:44.950Z,1000.10
2018-07-29T13:10:44.923Z,1000.08
2018-07-29T13:11:44.920Z,1000.06
2018-07-29T13:12:44.878Z,1000.12
2018-07-29T13:13:44.861Z,1000.02
2018-07-29T13:14:44.837Z,1000.09
2018-07-29T13:15:44.815Z,1000.03
2018-07-29T13:16:44.798Z,1000.00
2018-07-29T13:17:44.765Z,1000.08
2018-07-29T13:18:44.753Z,1000.00
2018-07-29T13:19:44.730Z,1000.01
2018-07-29T13:20:44.704Z,1000.00
2018-07-29T13:21:44.680Z,999.98
2018-07-29T13:22:44.656Z,1000.00
2018-07-29T13:23:44.657Z,999.93
2018-07-29T13:24:44.620Z,1000.02
2018-07-29T13:25:44.593Z,1000.06
2018-07-29T13:26:44.575Z,999.96
2018-07-29T13:27:44.546Z,999.99
2018-07-29T13:28:44.532Z,999.94
2018-07-29T13:29:44.536Z,999.99
2018-07-29T13:30:44.483Z,1000.00
2018-07-29T13:31:44.469Z,999.99
2018-07-29T13:32:44.498Z,999.90
2018-07-29T13:33:44.428Z,999.96
2018-07-29T13:34:44.395Z,999.90
2018-07-29T13:35:44.386Z,999.94
2018-07-29T13:36:44.378Z,999.90
2018-07-29T13:37:44.338Z,999.90
2018-07-29T13:38:44.318Z,999.85
2018-07-29T13:39:44.403Z,999.85
2018-07-29T13:40:44.270Z,999.82
2018-07-29T13:41:44.252Z,999.79
2018-07-29T13:42:44.232Z,999.81
2018-07-29T13:43:44.243Z,999.73
2018-07-29T13:44:44.190Z,999.86
2018-07-29T13:45:44.192Z,999.71
2018-07-29T13:46:44.140Z,999.75
2018-07-29T13:47:44.122Z,999.71
2018-07-29T13:48:44.097Z,999.70
2018-07-29T13:49:44.075Z,999.78
2018-07-29T13:50:44.060Z,999.76
2018-07-29T13:51:44.057Z,999.72
2018-07-29T13:52:44.017Z,999.78
2018-07-29T13:53:43.996Z,999.76
2018-07-29T13:54:43.967Z,999.81
2018-07-29T13:55:44.134Z,999.88
2018-07-29T13:56:43.943Z,999.89
2018-07-29T13:57:43.910Z,999.86
2018-07-29T13:58:43.889Z,999.88
2018-07-29T13:59:43.860Z,999.83
2018-07-29T14:00:43.849Z,999.87
2018-07-29T14:01:43.821Z,999.79
2018-07-29T14:02:43.809Z,999.81
2018-07-29T14:03:43.783Z,999.81
2018-07-29T14:04:43.760Z,999.88
2018-07-29T14:05:43.738Z,999.79
2018-07-29T14:06:43.725Z,999.78
2018-07-29T14:07:43.702Z,999.75
2018-07-29T14:08:43.712Z,999.78
2018-07-29T14:12:07.328Z,999.68
2018-07-29T14:13:07.270Z,999.69
2018-07-29T14:15:00.530Z,999.70
2018-07-29T14:16:00.527Z,999.70
2018-07-29T14:17:00.465Z,999.68
2018-07-29T14:18:00.437Z,999.69
2018-07-29T14:19:00.412Z,999.69
2018-07-29T14:20:00.472Z,999.64
2018-07-29T14:21:00.455Z,999.68
2018-07-29T14:22:00.429Z,999.69
2018-07-29T14:23:00.418Z,999.69
2018-07-29T14:24:00.375Z,999.73
2018-07-29T14:25:00.359Z,999.73
2018-07-29T14:26:00.283Z,999.69
2018-07-29T14:27:00.269Z,999.72
2018-07-29T14:28:00.247Z,999.67
2018-07-29T14:29:00.212Z,999.65
2018-07-29T14:30:00.202Z,999.79
2018-07-29T14:31:00.191Z,999.61
2018-07-29T14:32:00.160Z,999.62
2018-07-29T14:33:00.145Z,999.63
2018-07-29T14:34:00.116Z,999.64
2018-07-29T14:35:00.101Z,999.66
2018-07-29T14:36:00.072Z,999.61
2018-07-29T14:37:00.065Z,999.59
2018-07-29T14:38:00.032Z,999.57
2018-07-29T14:39:00.018Z,999.52
2018-07-29T14:39:59.995Z,999.53
2018-07-29T14:40:59.968Z,999.57
2018-07-29T14:41:59.948Z,999.51
2018-07-29T14:42:59.924Z,999.59
2018-07-29T14:43:59.910Z,999.54
2018-07-29T14:44:59.885Z,999.57
2018-07-29T14:45:59.867Z,999.59
2018-07-29T14:46:59.852Z,999.54
2018-07-29T14:47:59.827Z,999.48
2018-07-29T14:48:59.815Z,999.42
2018-07-29T14:49:59.782Z,999.44
2018-07-29T14:50:59.775Z,999.45
2018-07-29T14:51:59.748Z,999.48
2018-07-29T14:52:59.749Z,999.37
2018-07-29T14:53:59.711Z,999.42
2018-07-29T14:54:59.693Z,999.41
2018-07-29T14:55:59.673Z,999.41
2018-07-29T14:56:59.653Z,999.40
2018-07-29T14:57:59.674Z,999.45
2018-07-29T14:58:59.626Z,999.44
2018-07-29T14:59:59.592Z,999.46
2018-07-29T15:00:59.569Z,999.42
2018-07-29T15:01:59.565Z,999.50
2018-07-29T15:02:59.573Z,999.44
2018-07-29T15:03:59.520Z,999.39
2018-07-29T15:04:59.504Z,999.39
2018-07-29T15:05:59.480Z,999.41
2018-07-29T15:06:59.448Z,999.40
2018-07-29T15:07:59.458Z,999.40
2018-07-29T15:08:59.419Z,999.40
2018-07-29T15:09:59.397Z,999.40
2018-07-29T15:10:59.383Z,999.39
2018-07-29T15:11:59.347Z,999.33
2018-07-29T15:12:59.372Z,999.36
2018-07-29T15:13:59.337Z,999.35
2018-07-29T15:14:59.319Z,999.30
2018-07-29T15:15:59.356Z,999.33
2018-07-29T15:16:59.310Z,999.32
2018-07-29T15:17:59.308Z,999.33
2018-07-29T15:18:59.373Z,999.34
2018-07-29T15:19:59.258Z,999.33
2018-07-29T15:20:59.228Z,999.29
2018-07-29T15:21:59.210Z,999.26
2018-07-29T15:22:59.204Z,999.17
2018-07-29T15:23:59.200Z,999.26
2018-07-29T15:24:59.160Z,999.19
2018-07-29T15:25:59.132Z,999.22
2018-07-29T15:26:59.125Z,999.18
2018-07-29T15:27:59.130Z,999.15
2018-07-29T15:28:59.072Z,999.12
2018-07-29T15:29:59.077Z,999.14
2018-07-29T15:30:59.083Z,999.18
2018-07-29T15:31:59.048Z,999.16
2018-07-29T15:32:59.022Z,999.15
2018-07-29T15:33:59.089Z,999.17
2018-07-29T15:34:58.999Z,999.11
2018-07-29T15:35:58.962Z,999.14
2018-07-29T15:36:58.954Z,999.19
2018-07-29T15:37:58.921Z,999.09
2018-07-29T15:38:58.942Z,999.07
2018-07-29T15:39:58.897Z,999.08
2018-07-29T15:40:58.887Z,999.08
2018-07-29T15:41:58.848Z,999.09
2018-07-29T15:42:58.852Z,999.09
2018-07-29T15:43:58.839Z,999.07
2018-07-29T15:44:58.817Z,999.09
2018-07-29T15:45:58.795Z,999.14
2018-07-29T15:46:58.799Z,999.13
2018-07-29T15:47:58.857Z,999.07
2018-07-29T15:48:58.848Z,999.01
2018-07-29T15:49:58.800Z,998.97
2018-07-29T15:50:58.681Z,998.98
2018-07-29T15:51:58.663Z,998.94
2018-07-29T15:52:58.646Z,998.90
2018-07-29T15:53:58.663Z,998.87
2018-07-29T15:54:58.620Z,998.94
2018-07-29T15:55:58.601Z,998.96
2018-07-29T15:56:58.653Z,998.98
2018-07-29T15:57:58.589Z,998.95
2018-07-29T15:58:58.554Z,999.05
2018-07-29T15:59:58.543Z,998.98
2018-07-29T16:00:58.525Z,998.99
2018-07-29T16:01:58.507Z,998.96
2018-07-29T16:02:58.492Z,998.90
2018-07-29T16:03:58.485Z,998.92
2018-07-29T16:04:58.465Z,998.93
2018-07-29T16:05:58.448Z,998.86
2018-07-29T16:06:58.440Z,998.90
2018-07-29T16:07:58.418Z,998.88
2018-07-29T16:08:58.403Z,998.87
2018-07-29T16:09:58.396Z,998.77
2018-07-29T16:10:58.507Z,998.79
2018-07-29T16:11:58.367Z,998.82
2018-07-29T16:12:58.343Z,998.87
2018-07-29T16:13:58.334Z,998.84
2018-07-29T16:14:58.321Z,998.83
2018-07-29T16:15:58.305Z,998.79
2018-07-29T16:16:58.290Z,998.78
2018-07-29T16:17:58.284Z,998.77
2018-07-29T16:18:58.269Z,998.77
2018-07-29T16:19:58.251Z,998.74
2018-07-29T16:20:58.235Z,998.76
2018-07-29T16:21:58.228Z,998.80
2018-07-29T16:22:58.213Z,998.84
2018-07-29T16:23:58.204Z,998.83
2018-07-29T16:24:58.184Z,998.85
2018-07-29T16:25:58.168Z,998.87
2018-07-29T16:26:58.161Z,998.86
2018-07-29T16:27:58.140Z,998.85
2018-07-29T16:28:58.131Z,998.85
2018-07-29T16:29:58.118Z,998.80
2018-07-29T16:30:58.102Z,998.87
2018-07-29T16:31:58.093Z,998.86
2018-07-29T16:32:58.077Z,998.89
2018-07-29T16:33:58.112Z,998.94
2018-07-29T16:34:58.051Z,998.91
2018-07-29T16:35:58.040Z,998.82
2018-07-29T16:36:58.028Z,998.85
2018-07-29T16:37:58.008Z,998.86
2018-07-29T16:38:57.999Z,998.82
2018-07-29T16:39:57.978Z,998.82
2018-07-29T16:40:57.968Z,998.87
2018-07-29T16:41:57.954Z,998.86
2018-07-29T16:42:57.942Z,998.87
2018-07-29T16:43:57.933Z,998.81
2018-07-29T16:44:57.913Z,998.87
2018-07-29T16:45:57.908Z,998.85
2018-07-29T16:46:57.883Z,998.88
2018-07-29T16:47:57.876Z,998.87
2018-07-29T16:48:57.863Z,998.93
2018-07-29T16:49:57.910Z,998.86
2018-07-29T16:50:57.889Z,998.87
2018-07-29T16:51:57.813Z,998.88
2018-07-29T16:52:57.886Z,998.89
2018-07-29T16:53:57.787Z,998.88
2018-07-29T16:54:57.770Z,998.85
2018-07-29T16:55:57.766Z,998.90
2018-07-29T16:56:57.807Z,998.93
2018-07-29T16:57:57.805Z,998.93
2018-07-29T16:58:57.715Z,998.92
2018-07-29T16:59:57.827Z,998.87
2018-07-29T17:00:57.692Z,998.86
2018-07-29T17:01:57.668Z,998.84
2018-07-29T17:02:57.660Z,998.83
2018-07-29T17:03:57.643Z,998.81